Time;durP1;ratioP1;P1;durP2;ratioP2;P2;SDS_P1;SDS_P2;PMS_P1;PMS_P2;Temp;Humidity;BMP_temperature;BMP_pressure;BME280_temperature;BME280_humidity;BME280_pressure;Samples;Min_cycle;Max_cycle;Signal;HPM_P1;HPM_P2
2023/10/04 00:00:52;;;;;;;13.18;2.85;;;15.90;99.90;;;;;;5070118;28;20129;-66
2023/10/04 00:03:22;;;;;;;16.63;2.85;;;15.90;99.90;;;;;;5070157;28;20029;-66
2023/10/04 00:05:48;;;;;;;13.23;3.10;;;15.90;99.90;;;;;;5072607;28;20031;-64
2023/10/04 00:08:14;;;;;;;13.80;2.88;;;15.90;99.90;;;;;;5073998;28;20021;-66
2023/10/04 00:10:39;;;;;;;12.63;3.08;;;15.90;99.90;;;;;;5073976;28;20094;-65
2023/10/04 00:13:05;;;;;;;15.15;3.05;;;15.90;99.90;;;;;;5073959;28;20055;-65
2023/10/04 00:15:31;;;;;;;10.25;2.78;;;15.90;99.90;;;;;;5073674;28;20028;-65
2023/10/04 00:17:58;;;;;;;11.43;2.60;;;15.80;99.90;;;;;;5073920;28;20033;-65
2023/10/04 00:20:34;;;;;;;8.95;2.17;;;15.90;99.90;;;;;;5055972;28;20103;-65
2023/10/04 00:23:04;;;;;;;15.13;2.97;;;15.80;99.90;;;;;;5071899;28;20036;-65
2023/10/04 00:25:29;;;;;;;15.98;2.80;;;15.80;99.90;;;;;;5073978;28;20042;-66
2023/10/04 00:27:58;;;;;;;16.27;3.08;;;15.80;99.90;;;;;;5074853;28;20036;-66
2023/10/04 00:30:29;;;;;;;14.43;3.13;;;15.80;99.90;;;;;;5073199;28;20027;-65
2023/10/04 00:32:55;;;;;;;14.27;2.75;;;15.70;99.90;;;;;;5074876;28;20031;-65
2023/10/04 00:35:22;;;;;;;16.30;2.83;;;15.60;99.90;;;;;;5074751;28;20024;-65
2023/10/04 00:37:55;;;;;;;15.88;2.90;;;15.60;99.90;;;;;;5074416;28;20032;-65
2023/10/04 00:40:27;;;;;;;14.50;3.33;;;15.50;99.90;;;;;;5074478;28;20044;-65
2023/10/04 00:42:55;;;;;;;11.40;2.60;;;15.50;99.90;;;;;;5073923;28;20040;-65
2023/10/04 00:45:24;;;;;;;12.57;2.80;;;15.50;99.90;;;;;;5073901;28;20036;-65
2023/10/04 00:47:54;;;;;;;15.27;2.97;;;15.40;99.90;;;;;;5074569;28;20028;-66
2023/10/04 00:50:31;;;;;;;16.60;2.92;;;15.40;99.90;;;;;;5074667;28;20053;-65
2023/10/04 00:53:05;;;;;;;14.90;3.00;;;15.40;99.90;;;;;;5074574;28;20031;-65
2023/10/04 00:55:34;;;;;;;17.10;3.00;;;15.40;99.90;;;;;;5074451;28;20024;-65
2023/10/04 00:58:05;;;;;;;12.68;3.28;;;15.40;99.90;;;;;;5073834;28;20564;-64
2023/10/04 01:00:31;;;;;;;15.35;3.15;;;15.40;99.90;;;;;;5074519;28;20032;-66
2023/10/04 01:02:57;;;;;;;18.00;3.50;;;15.50;99.90;;;;;;5074492;28;20024;-66
2023/10/04 01:05:25;;;;;;;11.70;2.85;;;15.50;99.90;;;;;;5074186;28;20457;-65
2023/10/04 01:07:52;;;;;;;16.50;3.63;;;15.60;99.90;;;;;;5073901;28;20085;-65
2023/10/04 01:10:20;;;;;;;15.00;3.25;;;15.60;99.90;;;;;;5074146;28;20052;-65
2023/10/04 01:12:47;;;;;;;17.95;3.22;;;15.70;99.90;;;;;;5073845;28;20024;-66
2023/10/04 01:15:31;;;;;;;14.52;3.33;;;15.70;99.90;;;;;;5073717;28;20460;-65
2023/10/04 01:18:04;;;;;;;13.20;2.92;;;15.70;99.90;;;;;;5074108;28;20047;-65
2023/10/04 01:20:30;;;;;;;13.05;2.88;;;15.70;99.90;;;;;;5073559;28;20037;-65
2023/10/04 01:23:00;;;;;;;14.68;3.63;;;15.70;99.90;;;;;;5073838;28;20067;-65
2023/10/04 01:25:31;;;;;;;16.02;3.10;;;15.70;99.90;;;;;;5073986;28;20024;-65
2023/10/04 01:27:56;;;;;;;14.57;2.90;;;15.70;99.90;;;;;;5073736;28;20112;-65
2023/10/04 01:30:22;;;;;;;11.32;2.72;;;15.60;99.90;;;;;;5073506;28;20579;-65
2023/10/04 01:32:51;;;;;;;11.23;3.03;;;15.60;99.90;;;;;;5073448;28;20127;-65
2023/10/04 01:35:24;;;;;;;11.63;2.75;;;15.60;99.90;;;;;;5073735;28;20024;-65
2023/10/04 01:37:53;;;;;;;15.77;2.90;;;15.60;99.90;;;;;;5073669;28;20036;-65
2023/10/04 01:40:25;;;;;;;12.32;2.78;;;15.60;99.90;;;;;;5073608;28;20050;-65
2023/10/04 01:42:55;;;;;;;11.88;2.80;;;15.60;99.90;;;;;;5073629;28;20027;-65
2023/10/04 01:45:21;;;;;;;14.15;2.95;;;15.60;99.90;;;;;;5073118;28;20116;-65
2023/10/04 01:47:47;;;;;;;12.07;2.92;;;15.50;99.90;;;;;;5072666;28;20161;-65
2023/10/04 01:50:13;;;;;;;14.13;3.10;;;15.60;99.90;;;;;;5073278;28;20049;-66
2023/10/04 01:52:38;;;;;;;12.38;2.90;;;15.60;99.90;;;;;;5073368;28;20090;-65
2023/10/04 01:55:10;;;;;;;15.35;3.25;;;15.60;99.90;;;;;;5073141;28;20035;-65
2023/10/04 01:57:38;;;;;;;16.50;3.10;;;15.60;99.90;;;;;;5072992;28;20123;-65
2023/10/04 02:00:06;;;;;;;12.82;2.70;;;15.70;99.90;;;;;;5073077;28;20040;-65
2023/10/04 02:02:31;;;;;;;12.80;2.38;;;15.70;99.90;;;;;;5071909;28;20502;-65
2023/10/04 02:04:57;;;;;;;13.07;2.90;;;15.70;99.90;;;;;;5072419;28;20059;-65
2023/10/04 02:07:23;;;;;;;13.05;2.90;;;15.80;99.90;;;;;;5072961;28;20036;-66
2023/10/04 02:09:51;;;;;;;13.80;3.03;;;15.80;99.90;;;;;;5072813;28;20047;-65
2023/10/04 02:12:18;;;;;;;13.27;2.70;;;15.80;99.90;;;;;;5072595;28;20039;-65
2023/10/04 02:14:50;;;;;;;14.50;3.15;;;15.80;99.90;;;;;;5072696;28;20111;-65
2023/10/04 02:17:17;;;;;;;12.75;2.88;;;15.80;99.90;;;;;;5072933;28;20484;-65
2023/10/04 02:19:43;;;;;;;13.90;2.97;;;15.90;99.90;;;;;;5072848;28;20039;-65
2023/10/04 02:22:10;;;;;;;13.80;2.90;;;15.90;99.90;;;;;;5072351;28;20028;-65
2023/10/04 02:24:38;;;;;;;12.30;2.92;;;15.90;99.90;;;;;;5072784;28;20111;-66
2023/10/04 02:27:07;;;;;;;13.95;3.65;;;16.00;99.90;;;;;;5071617;28;20082;-66
2023/10/04 02:29:34;;;;;;;11.65;2.97;;;15.90;99.90;;;;;;5072578;28;20032;-66
2023/10/04 02:32:08;;;;;;;13.07;2.90;;;15.90;99.90;;;;;;5072668;28;20103;-66
2023/10/04 02:34:34;;;;;;;20.17;3.50;;;15.90;99.90;;;;;;5072677;28;20063;-66
2023/10/04 02:37:00;;;;;;;14.27;3.17;;;15.90;99.90;;;;;;5072151;28;20423;-66
2023/10/04 02:39:26;;;;;;;10.95;2.72;;;15.80;99.90;;;;;;5071846;28;20029;-66
2023/10/04 02:41:51;;;;;;;14.13;3.58;;;15.80;99.90;;;;;;5072428;28;20033;-66
2023/10/04 02:44:17;;;;;;;14.05;2.75;;;15.80;99.90;;;;;;5072512;28;20070;-66
2023/10/04 02:46:45;;;;;;;18.60;3.97;;;15.80;99.90;;;;;;5072401;28;20024;-67
2023/10/04 02:49:10;;;;;;;15.35;3.63;;;15.80;99.90;;;;;;5070460;28;20029;-67
2023/10/04 02:51:36;;;;;;;16.30;3.38;;;15.80;99.90;;;;;;5070532;28;20048;-67
2023/10/04 02:54:04;;;;;;;15.25;3.75;;;15.80;99.90;;;;;;5072065;28;20103;-66
2023/10/04 02:56:30;;;;;;;16.83;3.88;;;15.70;99.90;;;;;;5071864;28;20044;-66
2023/10/04 02:58:56;;;;;;;16.58;3.28;;;15.70;99.90;;;;;;5072574;28;20036;-66
2023/10/04 03:01:26;;;;;;;11.93;3.00;;;15.70;99.90;;;;;;5072348;28;20025;-66
2023/10/04 03:03:52;;;;;;;10.30;3.00;;;15.70;99.90;;;;;;5072044;28;20033;-66
2023/10/04 03:06:22;;;;;;;12.50;3.08;;;15.60;99.90;;;;;;5071983;28;20054;-66
2023/10/04 03:08:50;;;;;;;14.25;3.55;;;15.60;99.90;;;;;;5071815;28;20039;-66
2023/10/04 03:11:16;;;;;;;16.80;3.50;;;15.60;99.90;;;;;;5072210;28;20484;-66
2023/10/04 03:13:42;;;;;;;12.60;3.10;;;15.70;99.90;;;;;;5071527;28;20029;-66
2023/10/04 03:16:09;;;;;;;14.10;3.88;;;15.70;99.90;;;;;;5071394;28;20487;-66
2023/10/04 03:18:37;;;;;;;16.17;3.90;;;15.70;99.90;;;;;;5072151;28;20040;-66
2023/10/04 03:21:16;;;;;;;14.40;3.15;;;15.70;99.90;;;;;;5071973;28;20020;-66
2023/10/04 03:23:42;;;;;;;13.77;3.42;;;15.70;99.90;;;;;;5072202;28;20059;-66
2023/10/04 03:26:11;;;;;;;14.73;3.22;;;15.70;99.90;;;;;;5070766;28;20025;-66
2023/10/04 03:28:37;;;;;;;17.10;4.00;;;15.70;99.90;;;;;;5071612;28;20033;-66
2023/10/04 03:31:18;;;;;;;14.48;3.75;;;15.70;99.90;;;;;;5071983;28;20028;-65
2023/10/04 03:33:44;;;;;;;17.20;3.67;;;15.70;99.90;;;;;;5071652;28;20032;-65
2023/10/04 03:36:14;;;;;;;15.02;3.40;;;15.70;99.90;;;;;;5071985;28;20037;-65
2023/10/04 03:38:41;;;;;;;14.05;3.47;;;15.70;99.90;;;;;;5071254;28;20102;-65
2023/10/04 03:41:06;;;;;;;14.98;4.38;;;15.70;99.90;;;;;;5075599;28;20392;-64
2023/10/04 03:43:35;;;;;;;16.08;4.22;;;15.70;99.90;;;;;;5075669;28;20021;-66
2023/10/04 03:46:16;;;;;;;16.63;3.58;;;15.60;99.90;;;;;;5075066;28;20029;-66
2023/10/04 03:48:46;;;;;;;13.85;4.20;;;15.60;99.90;;;;;;5075861;28;20031;-66
2023/10/04 03:51:13;;;;;;;21.42;4.15;;;15.60;99.90;;;;;;5075693;28;20037;-66
2023/10/04 03:53:42;;;;;;;15.80;3.72;;;15.60;99.90;;;;;;5075319;28;20370;-66
2023/10/04 03:56:10;;;;;;;13.73;3.70;;;15.50;99.90;;;;;;5075601;28;20469;-66
2023/10/04 03:58:36;;;;;;;16.77;3.78;;;15.50;99.90;;;;;;5075225;28;20041;-66
2023/10/04 04:01:03;;;;;;;17.45;4.32;;;15.50;99.90;;;;;;5075113;28;20028;-66
2023/10/04 04:03:30;;;;;;;15.75;3.53;;;15.50;99.90;;;;;;5075523;28;20035;-66
2023/10/04 04:05:56;;;;;;;15.05;3.83;;;15.40;99.90;;;;;;5075475;28;20369;-66
2023/10/04 04:08:22;;;;;;;17.63;3.95;;;15.50;99.90;;;;;;5075546;28;20031;-65
2023/10/04 04:10:49;;;;;;;16.83;3.92;;;15.50;99.90;;;;;;5075134;28;20032;-65
2023/10/04 04:13:14;;;;;;;14.27;3.60;;;15.50;99.90;;;;;;5075101;28;20028;-65
2023/10/04 04:15:40;;;;;;;14.73;3.88;;;15.50;99.90;;;;;;5074945;28;20032;-65
2023/10/04 04:18:06;;;;;;;16.52;4.35;;;15.50;99.90;;;;;;5075128;28;20041;-65
2023/10/04 04:20:35;;;;;;;18.58;4.25;;;15.60;99.90;;;;;;5075017;28;20025;-65
2023/10/04 04:23:03;;;;;;;18.95;3.67;;;15.60;99.90;;;;;;5075430;28;20033;-66
2023/10/04 04:25:29;;;;;;;15.13;3.30;;;15.50;99.90;;;;;;5075245;28;20028;-65
2023/10/04 04:27:56;;;;;;;16.27;3.83;;;15.50;99.90;;;;;;5074597;28;20112;-66
2023/10/04 04:30:28;;;;;;;16.10;3.70;;;15.50;99.90;;;;;;5075476;28;20031;-65
2023/10/04 04:32:56;;;;;;;16.85;4.05;;;15.50;99.90;;;;;;5075144;28;20036;-65
2023/10/04 04:38:38;;;;;;;16.02;4.15;;;15.50;99.90;;;;;;5074837;28;20452;-65
2023/10/04 04:40:57;;;;;;;19.52;3.95;;;15.50;99.90;;;;;;5076619;28;20039;-65
2023/10/04 04:43:35;;;;;;;13.75;3.42;;;15.40;99.90;;;;;;5074639;28;20033;-65
2023/10/04 04:46:02;;;;;;;13.55;3.42;;;15.40;99.90;;;;;;5073157;28;20040;-66
2023/10/04 04:48:30;;;;;;;18.38;3.58;;;15.40;99.90;;;;;;5082529;28;20017;-65
2023/10/04 04:51:10;;;;;;;18.77;4.10;;;15.30;99.90;;;;;;5076482;28;20057;-65
2023/10/04 04:53:39;;;;;;;16.52;3.50;;;15.30;99.90;;;;;;5062875;28;20051;-65
2023/10/04 04:56:08;;;;;;;17.63;4.53;;;15.30;99.90;;;;;;5077077;28;20455;-65
2023/10/04 04:58:34;;;;;;;18.70;4.10;;;15.30;99.90;;;;;;5074541;28;20393;-65
2023/10/04 05:01:01;;;;;;;17.90;4.70;;;15.20;99.90;;;;;;5073687;28;20032;-65
2023/10/04 05:03:27;;;;;;;17.80;3.75;;;15.20;99.90;;;;;;5072375;28;20032;-65
2023/10/04 05:05:56;;;;;;;18.40;3.95;;;15.20;99.90;;;;;;5084657;28;20028;-65
2023/10/04 05:08:24;;;;;;;18.73;3.53;;;15.20;99.90;;;;;;5080936;28;20055;-66
2023/10/04 05:10:50;;;;;;;15.63;3.67;;;15.20;99.90;;;;;;5090647;28;20024;-65
2023/10/04 05:13:18;;;;;;;14.07;3.67;;;15.20;99.90;;;;;;5078223;28;20024;-65
2023/10/04 05:15:45;;;;;;;16.70;4.28;;;15.20;99.90;;;;;;5085800;28;20028;-65
2023/10/04 05:18:15;;;;;;;13.80;3.45;;;15.10;99.90;;;;;;5086370;28;20036;-65
2023/10/04 05:20:45;;;;;;;19.27;3.63;;;15.20;99.90;;;;;;5078140;28;20541;-65
2023/10/04 05:23:11;;;;;;;19.83;4.45;;;15.10;99.90;;;;;;5061623;28;20035;-65
2023/10/04 05:25:37;;;;;;;14.82;3.80;;;15.10;99.90;;;;;;5086747;28;20455;-65
2023/10/04 05:28:09;;;;;;;18.33;3.75;;;15.10;99.90;;;;;;5082428;28;20490;-64
2023/10/04 05:30:35;;;;;;;;;;;15.10;99.90;;;;;;5081995;28;20036;-64
2023/10/04 05:33:01;;;;;;;16.88;4.10;;;15.10;99.90;;;;;;5090675;28;19915;-65
2023/10/04 05:35:27;;;;;;;17.02;4.20;;;15.00;99.90;;;;;;5080228;28;20464;-65
2023/10/04 05:37:53;;;;;;;17.05;4.53;;;15.10;99.90;;;;;;5078402;28;20120;-65
2023/10/04 05:40:27;;;;;;;13.68;4.38;;;15.00;99.90;;;;;;5088022;28;20024;-65
2023/10/04 05:42:54;;;;;;;16.13;4.00;;;15.00;99.90;;;;;;5075557;28;20070;-65
2023/10/04 05:45:25;;;;;;;15.10;3.90;;;15.00;99.90;;;;;;5073407;28;20024;-65
2023/10/04 05:47:51;;;;;;;14.40;3.58;;;15.00;99.90;;;;;;5082864;28;20028;-64
2023/10/04 05:50:21;;;;;;;19.33;4.07;;;15.00;99.90;;;;;;5080544;28;20053;-65
2023/10/04 05:52:50;;;;;;;17.55;4.53;;;15.00;99.90;;;;;;5089842;28;20031;-65
2023/10/04 05:55:20;;;;;;;18.58;4.28;;;15.10;99.90;;;;;;5077711;28;20529;-65
2023/10/04 05:57:48;;;;;;;15.18;3.58;;;15.10;99.90;;;;;;5084420;28;20126;-67
2023/10/04 06:00:26;;;;;;;20.48;4.45;;;15.10;99.90;;;;;;5085205;28;20481;-65
2023/10/04 06:02:58;;;;;;;14.32;3.65;;;15.10;99.90;;;;;;5087605;28;20040;-65
2023/10/04 06:05:27;;;;;;;16.38;3.92;;;15.10;99.90;;;;;;5078890;28;20474;-65
2023/10/04 06:07:57;;;;;;;22.38;4.72;;;15.10;99.90;;;;;;5083220;28;20412;-66
2023/10/04 06:10:24;;;;;;;13.68;3.53;;;15.20;99.90;;;;;;5087025;28;20028;-66
2023/10/04 06:12:54;;;;;;;19.90;4.15;;;15.20;99.90;;;;;;5076524;28;20103;-65
2023/10/04 06:15:20;;;;;;;17.08;4.05;;;15.20;99.90;;;;;;5092209;28;20484;-65
2023/10/04 06:17:48;;;;;;;17.17;4.13;;;15.20;99.90;;;;;;5083552;28;20048;-65
2023/10/04 06:20:25;;;;;;;14.98;3.70;;;15.20;99.90;;;;;;5085294;28;20464;-66
2023/10/04 06:22:56;;;;;;;13.65;4.20;;;15.20;99.90;;;;;;5075986;28;20028;-65
2023/10/04 06:25:23;;;;;;;17.98;4.80;;;15.30;99.90;;;;;;5087407;28;20052;-66
2023/10/04 06:27:51;;;;;;;17.08;4.60;;;15.30;99.90;;;;;;5081597;28;20032;-66
2023/10/04 06:30:27;;;;;;;17.83;4.57;;;15.40;99.90;;;;;;5079619;28;20144;-64
2023/10/04 06:32:55;;;;;;;15.88;5.10;;;15.40;99.90;;;;;;5088979;28;20429;-65
2023/10/04 06:35:25;;;;;;;14.77;4.35;;;15.50;99.90;;;;;;5077763;28;20024;-66
2023/10/04 06:37:52;;;;;;;15.77;4.63;;;15.50;99.90;;;;;;5083448;28;20036;-65
2023/10/04 06:40:19;;;;;;;16.98;4.28;;;15.70;99.90;;;;;;5085736;28;20074;-65
2023/10/04 06:42:46;;;;;;;21.50;5.20;;;15.70;99.90;;;;;;5076152;28;20020;-66
2023/10/04 06:45:16;;;;;;;15.18;4.35;;;15.80;99.90;;;;;;5088660;28;20440;-65
2023/10/04 06:47:45;;;;;;;16.60;4.18;;;15.90;99.90;;;;;;5074290;28;20044;-65
2023/10/04 06:50:18;;;;;;;18.55;4.90;;;16.00;99.90;;;;;;5084706;28;20093;-66
2023/10/04 06:52:47;;;;;;;18.33;4.15;;;16.10;99.90;;;;;;5075676;28;20036;-64
2023/10/04 06:55:13;;;;;;;15.73;3.97;;;16.20;99.90;;;;;;5088351;28;20035;-66
2023/10/04 06:57:39;;;;;;;17.77;5.38;;;16.30;99.90;;;;;;5079745;28;20036;-65
2023/10/04 07:00:16;;;;;;;15.10;4.50;;;16.40;99.90;;;;;;5080588;28;20060;-65
2023/10/04 07:03:08;;;;;;;14.82;4.20;;;16.50;99.90;;;;;;5074778;28;20486;-65
2023/10/04 07:05:38;;;;;;;17.67;4.82;;;16.60;99.90;;;;;;5077248;28;20043;-66
2023/10/04 07:08:09;;;;;;;19.85;4.30;;;16.70;99.90;;;;;;5081467;28;20032;-66
2023/10/04 07:10:35;;;;;;;16.20;4.72;;;16.80;99.90;;;;;;5087456;28;20028;-65
2023/10/04 07:13:02;;;;;;;18.25;4.28;;;16.90;99.90;;;;;;5090452;28;20064;-65
2023/10/04 07:15:30;;;;;;;15.18;4.30;;;17.00;99.90;;;;;;5085051;28;20516;-65
2023/10/04 07:17:56;;;;;;;17.77;4.88;;;17.10;99.90;;;;;;5088877;28;20078;-65
2023/10/04 07:20:24;;;;;;;17.35;4.50;;;17.10;99.90;;;;;;5092519;28;20035;-65
2023/10/04 07:22:58;;;;;;;14.82;4.88;;;17.20;99.90;;;;;;5096025;28;20104;-65
2023/10/04 07:25:25;;;;;;;15.50;4.57;;;17.30;99.90;;;;;;5084720;28;20020;-66
2023/10/04 07:27:51;;;;;;;15.75;4.70;;;17.30;99.90;;;;;;5089537;28;20037;-65
2023/10/04 07:30:19;;;;;;;15.63;5.43;;;17.40;99.90;;;;;;5091412;28;20027;-66
2023/10/04 07:32:46;;;;;;;16.55;4.57;;;17.50;99.90;;;;;;5082008;28;20047;-66
2023/10/04 07:35:16;;;;;;;15.77;5.07;;;17.60;99.90;;;;;;5094842;28;20078;-66
2023/10/04 07:37:42;;;;;;;13.50;4.68;;;17.70;99.90;;;;;;5086823;28;20442;-65
2023/10/04 07:40:09;;;;;;;14.98;4.47;;;17.90;99.90;;;;;;5090138;28;20028;-67
2023/10/04 07:42:38;;;;;;;13.90;4.80;;;17.90;99.90;;;;;;5083422;28;20032;-66
2023/10/04 07:45:05;;;;;;;18.42;5.28;;;18.00;99.90;;;;;;5095512;28;20043;-66
2023/10/04 07:47:32;;;;;;;17.58;4.95;;;18.00;99.90;;;;;;5084404;28;20024;-66
2023/10/04 07:49:58;;;;;;;15.75;4.60;;;18.10;99.90;;;;;;5087950;28;20073;-66
2023/10/04 07:52:24;;;;;;;19.42;5.68;;;18.20;99.90;;;;;;5073049;28;20032;-66
2023/10/04 07:54:53;;;;;;;14.48;4.55;;;18.40;99.90;;;;;;5080370;28;20105;-66
2023/10/04 07:57:19;;;;;;;17.55;4.55;;;18.50;99.90;;;;;;5083037;28;20020;-66
2023/10/04 07:59:44;;;;;;;19.65;4.68;;;18.60;99.90;;;;;;5089734;28;20029;-66
2023/10/04 08:02:11;;;;;;;18.48;5.00;;;18.50;99.90;;;;;;5090254;28;20043;-66
2023/10/04 08:04:36;;;;;;;16.33;4.30;;;18.60;99.90;;;;;;5082763;28;20146;-66
2023/10/04 08:07:12;;;;;;;18.08;4.30;;;18.70;99.90;;;;;;5095088;28;20098;-66
2023/10/04 08:09:38;;;;;;;17.70;4.95;;;18.80;99.90;;;;;;5086155;28;20032;-66
2023/10/04 08:12:07;;;;;;;15.50;4.35;;;19.00;99.90;;;;;;5094486;28;20029;-68
2023/10/04 08:14:33;;;;;;;17.88;5.07;;;19.30;99.90;;;;;;5078501;28;20032;-66
2023/10/04 08:16:59;;;;;;;17.33;4.35;;;19.70;99.90;;;;;;5082906;28;20549;-66
2023/10/04 08:19:26;;;;;;;18.27;5.25;;;20.00;99.90;;;;;;5092320;28;20131;-65
2023/10/04 08:21:51;;;;;;;19.05;4.82;;;20.30;99.90;;;;;;5087563;28;20476;-66
2023/10/04 08:24:17;;;;;;;16.42;4.15;;;20.50;99.90;;;;;;5085294;28;20033;-66
2023/10/04 08:26:43;;;;;;;16.38;4.05;;;20.70;99.90;;;;;;5090044;28;20084;-67
2023/10/04 08:29:10;;;;;;;17.42;5.03;;;20.90;99.90;;;;;;5075910;28;20020;-66
2023/10/04 08:31:36;;;;;;;14.75;3.60;;;21.20;99.90;;;;;;5082132;28;20059;-66
2023/10/04 08:34:03;;;;;;;16.33;3.95;;;21.50;99.90;;;;;;5084153;28;20036;-66
2023/10/04 08:36:28;;;;;;;13.77;3.35;;;21.60;99.90;;;;;;5089746;28;20033;-66
2023/10/04 08:38:54;;;;;;;20.88;4.75;;;21.50;99.90;;;;;;5078417;28;20047;-66
2023/10/04 08:41:20;;;;;;;16.63;3.80;;;21.30;99.90;;;;;;5090245;28;20031;-66
2023/10/04 08:43:47;;;;;;;14.10;4.60;;;21.40;99.90;;;;;;5083301;28;20152;-66
2023/10/04 08:46:18;;;;;;;16.85;4.25;;;21.30;99.90;;;;;;5082062;28;20029;-68
2023/10/04 08:48:49;;;;;;;16.30;4.43;;;21.70;99.90;;;;;;5091201;28;20159;-66
2023/10/04 08:51:40;;;;;;;13.55;3.55;;;21.90;99.90;;;;;;5078337;28;20067;-66
2023/10/04 08:54:21;;;;;;;13.98;4.03;;;21.90;99.90;;;;;;5079831;28;20111;-67
2023/10/04 08:56:59;;;;;;;14.45;4.20;;;21.90;99.90;;;;;;5078798;28;20106;-66
2023/10/04 08:59:25;;;;;;;17.13;4.28;;;21.90;99.90;;;;;;5088631;28;20051;-66
2023/10/04 09:01:52;;;;;;;18.63;4.68;;;21.80;99.90;;;;;;5084044;28;20028;-66
2023/10/04 09:04:20;;;;;;;18.05;4.50;;;21.80;99.90;;;;;;5080771;28;20145;-66
2023/10/04 09:06:47;;;;;;;22.00;8.15;;;21.50;99.90;;;;;;5075989;28;20108;-66
2023/10/04 09:09:15;;;;;;;16.90;4.95;;;21.40;99.90;;;;;;5083836;28;20045;-66
2023/10/04 09:11:41;;;;;;;15.80;4.95;;;21.10;99.90;;;;;;5086569;28;20028;-66
2023/10/04 09:14:07;;;;;;;14.25;4.03;;;20.80;99.90;;;;;;5085999;28;20028;-66
2023/10/04 09:16:33;;;;;;;17.38;5.13;;;20.60;99.90;;;;;;5079370;28;20021;-66
2023/10/04 09:19:12;;;;;;;18.90;4.55;;;20.60;99.90;;;;;;5090909;28;20059;-66
2023/10/04 09:21:38;;;;;;;15.30;3.95;;;20.60;99.90;;;;;;5081388;28;20553;-67
2023/10/04 09:24:09;;;;;;;13.82;3.60;;;20.50;99.90;;;;;;5082371;28;20031;-67
2023/10/04 09:26:59;;;;;;;14.27;3.63;;;20.60;99.90;;;;;;5077487;28;20028;-66
2023/10/04 09:29:35;;;;;;;15.68;3.67;;;20.80;99.90;;;;;;5064866;28;20027;-67
2023/10/04 09:32:02;;;;;;;13.50;3.30;;;20.90;99.90;;;;;;5094006;28;20051;-67
2023/10/04 09:34:28;;;;;;;13.45;3.90;;;21.20;99.90;;;;;;5079696;28;20028;-67
2023/10/04 09:36:55;;;;;;;14.73;4.25;;;21.40;99.90;;;;;;5089926;28;20487;-67
2023/10/04 09:39:33;;;;;;;14.45;3.58;;;21.30;99.90;;;;;;5078620;28;20464;-67
2023/10/04 09:42:03;;;;;;;14.55;4.03;;;21.30;99.90;;;;;;5074588;28;20164;-67
2023/10/04 09:44:31;;;;;;;15.05;3.63;;;21.20;99.90;;;;;;5089679;28;20028;-67
2023/10/04 09:47:02;;;;;;;11.98;3.70;;;21.10;99.90;;;;;;5088800;28;20028;-67
2023/10/04 09:49:31;;;;;;;12.90;3.83;;;21.20;99.90;;;;;;5087704;28;20025;-67
2023/10/04 09:52:03;;;;;;;12.38;3.85;;;21.20;99.90;;;;;;5083626;28;20075;-66
2023/10/04 09:54:30;;;;;;;;;;;21.30;99.90;;;;;;5079626;28;20020;-67
2023/10/04 09:56:56;;;;;;;19.90;5.28;;;21.20;99.90;;;;;;5075392;28;20263;-68
2023/10/04 09:59:23;;;;;;;21.20;6.70;;;21.20;99.90;;;;;;5087601;28;20613;-67
2023/10/04 10:01:59;;;;;;;10.15;3.58;;;21.20;99.90;;;;;;5075970;28;20037;-68
2023/10/04 10:04:29;;;;;;;20.05;4.57;;;21.20;99.90;;;;;;5074312;28;20020;-67
2023/10/04 10:07:16;;;;;;;20.20;4.97;;;21.00;99.90;;;;;;5080322;28;20020;-67
2023/10/04 10:09:51;;;;;;;14.82;3.63;;;20.90;99.90;;;;;;5074714;28;20035;-68
2023/10/04 10:12:20;;;;;;;12.50;3.47;;;20.70;99.90;;;;;;5076980;28;20052;-66
2023/10/04 10:14:48;;;;;;;17.60;3.45;;;20.70;99.90;;;;;;5089903;28;20047;-67
2023/10/04 10:17:16;;;;;;;13.10;3.20;;;20.60;99.90;;;;;;5079447;28;20034;-67
2023/10/04 10:19:43;;;;;;;16.88;3.85;;;20.50;99.90;;;;;;5081431;28;20039;-67
2023/10/04 10:22:15;;;;;;;15.80;3.97;;;20.40;99.90;;;;;;5071182;28;20032;-67
2023/10/04 10:25:14;;;;;;;13.82;3.33;;;20.30;99.90;;;;;;5092223;28;20043;-67
2023/10/04 10:27:41;;;;;;;13.30;3.70;;;20.20;99.90;;;;;;5082449;28;20032;-67
2023/10/04 10:30:12;;;;;;;16.08;3.72;;;20.20;99.90;;;;;;5074872;28;20480;-67
2023/10/04 10:32:49;;;;;;;17.08;4.00;;;20.30;99.90;;;;;;5089204;28;20464;-67
2023/10/04 10:35:56;;;;;;;15.07;3.30;;;20.30;99.90;;;;;;5080296;28;20031;-67
2023/10/04 10:38:43;;;;;;;16.30;3.50;;;20.30;99.90;;;;;;5076117;28;20044;-67
2023/10/04 10:41:29;;;;;;;14.32;4.03;;;20.20;99.90;;;;;;5068762;28;20021;-67
2023/10/04 10:44:13;;;;;;;11.48;3.40;;;20.60;99.90;;;;;;5085292;28;20471;-67
2023/10/04 10:47:06;;;;;;;17.85;4.15;;;21.20;99.90;;;;;;5076095;28;20032;-67
2023/10/04 10:49:40;;;;;;;17.30;4.15;;;21.10;99.90;;;;;;5082708;28;20036;-67
2023/10/04 10:52:38;;;;;;;16.20;3.88;;;21.20;99.90;;;;;;5086528;28;20480;-67
2023/10/04 10:55:14;;;;;;;13.45;3.40;;;21.60;99.90;;;;;;5056417;28;20115;-68
2023/10/04 10:57:43;;;;;;;10.13;3.20;;;22.30;99.90;;;;;;5076612;28;20113;-68
2023/10/04 11:02:48;;;;;;;17.42;3.75;;;22.80;99.50;;;;;;5088421;28;20119;-66
2023/10/04 11:05:16;;;;;;;12.10;3.50;;;23.00;99.60;;;;;;5073161;28;20539;-66
2023/10/04 11:07:44;;;;;;;14.20;3.67;;;23.00;98.80;;;;;;5078486;28;20028;-66
2023/10/04 11:10:15;;;;;;;10.57;2.78;;;23.10;98.40;;;;;;5086731;28;20068;-66
2023/10/04 11:12:42;;;;;;;10.57;3.13;;;23.60;98.00;;;;;;5090116;28;20224;-66
2023/10/04 11:15:09;;;;;;;12.10;3.45;;;23.90;97.70;;;;;;5078700;28;20039;-67
2023/10/04 11:17:37;;;;;;;12.73;3.40;;;23.80;97.80;;;;;;5081776;28;20040;-66
2023/10/04 11:20:10;;;;;;;13.32;3.42;;;23.30;98.30;;;;;;5074817;28;20033;-66
2023/10/04 11:22:37;;;;;;;17.27;4.07;;;22.80;98.90;;;;;;5076035;28;20036;-65
2023/10/04 11:25:05;;;;;;;15.40;4.57;;;22.10;99.90;;;;;;5086851;28;20029;-66
2023/10/04 11:27:31;;;;;;;18.02;4.95;;;21.80;99.90;;;;;;5081764;28;20028;-66
2023/10/04 11:29:57;;;;;;;13.80;4.43;;;21.80;99.90;;;;;;5079209;28;20031;-66
2023/10/04 11:32:23;;;;;;;13.43;3.35;;;22.00;99.90;;;;;;5083396;28;20119;-67
2023/10/04 11:34:49;;;;;;;11.63;2.85;;;22.00;99.60;;;;;;5079302;28;20413;-67
2023/10/04 11:37:15;;;;;;;11.77;3.47;;;21.90;99.60;;;;;;5084984;28;20040;-67
2023/10/04 11:39:44;;;;;;;13.27;3.00;;;21.80;99.90;;;;;;5083165;28;20472;-67
2023/10/04 11:42:18;;;;;;;10.68;3.15;;;21.50;99.90;;;;;;5077474;28;20056;-67
2023/10/04 11:44:43;;;;;;;11.63;2.72;;;21.30;99.90;;;;;;5088360;28;20500;-67
2023/10/04 11:47:09;;;;;;;13.23;3.10;;;21.30;99.90;;;;;;5075996;28;20105;-67
2023/10/04 11:49:36;;;;;;;11.50;2.83;;;21.40;99.90;;;;;;5081631;28;20120;-67
2023/10/04 11:52:06;;;;;;;7.57;2.00;;;21.70;99.90;;;;;;5078491;28;20057;-68
2023/10/04 11:54:44;;;;;;;13.48;3.63;;;21.80;99.90;;;;;;5088425;28;20460;-67
2023/10/04 11:57:10;;;;;;;10.95;3.38;;;21.90;99.90;;;;;;5078472;28;20022;-67
2023/10/04 11:59:35;;;;;;;13.98;3.78;;;21.90;99.80;;;;;;5082529;28;20048;-67
2023/10/04 12:02:01;;;;;;;11.00;3.50;;;22.00;99.90;;;;;;5087895;28;20028;-67
2023/10/04 12:04:31;;;;;;;13.10;2.63;;;21.90;99.90;;;;;;5088493;28;20063;-67
2023/10/04 12:06:59;;;;;;;11.95;2.70;;;21.70;99.90;;;;;;5094559;28;20032;-67
2023/10/04 12:09:27;;;;;;;13.02;3.42;;;21.40;99.90;;;;;;5087180;28;20032;-67
2023/10/04 12:11:54;;;;;;;12.55;2.88;;;21.20;99.90;;;;;;5087828;28;20020;-65
2023/10/04 12:14:19;;;;;;;14.20;2.60;;;21.10;99.90;;;;;;5077265;28;20028;-66
2023/10/04 12:16:45;;;;;;;11.75;2.40;;;21.10;99.90;;;;;;5080371;28;20092;-66
2023/10/04 12:19:11;;;;;;;13.07;2.60;;;21.10;99.90;;;;;;5076968;28;20033;-66
2023/10/04 12:21:37;;;;;;;13.10;2.72;;;21.20;99.90;;;;;;5086598;28;20039;-66
2023/10/04 12:24:04;;;;;;;9.30;2.58;;;21.30;99.90;;;;;;5081620;28;20024;-66
2023/10/04 12:26:30;;;;;;;12.25;3.38;;;21.40;99.90;;;;;;5090639;28;20101;-66
2023/10/04 12:28:57;;;;;;;15.05;3.40;;;21.50;99.90;;;;;;5079801;28;20081;-65
2023/10/04 12:31:23;;;;;;;12.40;2.85;;;21.40;99.90;;;;;;5086843;28;20020;-65
2023/10/04 12:33:50;;;;;;;8.57;2.50;;;21.30;99.90;;;;;;5086725;28;20024;-66
2023/10/04 12:36:16;;;;;;;7.20;1.77;;;21.30;99.90;;;;;;5079352;28;20025;-66
2023/10/04 12:38:42;;;;;;;11.70;2.40;;;21.20;99.90;;;;;;5091671;28;20146;-65
2023/10/04 12:41:08;;;;;;;10.25;2.50;;;21.20;99.90;;;;;;5081390;28;20103;-65
2023/10/04 12:43:34;;;;;;;8.90;2.20;;;21.20;99.90;;;;;;5080378;28;20459;-66
2023/10/04 12:46:00;;;;;;;12.65;2.72;;;21.20;99.90;;;;;;5087908;28;20129;-66
2023/10/04 12:48:26;;;;;;;10.18;2.83;;;21.20;99.90;;;;;;5077501;28;20028;-65
2023/10/04 12:50:52;;;;;;;6.68;1.70;;;21.30;99.90;;;;;;5083754;28;20055;-65
2023/10/04 12:53:18;;;;;;;8.70;2.00;;;21.40;99.90;;;;;;5087291;28;20025;-65